sensor_id;sensor_type;location;lat;lon;timestamp;P1;durP1;ratioP1;P2;durP2;ratioP2
44110;SDS011;29774;52.664;5.074;2022-09-13T00:00:20;11.45;;;7.15;;
44110;SDS011;29774;52.664;5.074;2022-09-13T00:02:45;11.45;;;8.20;;
44110;SDS011;29774;52.664;5.074;2022-09-13T00:05:11;9.35;;;7.85;;
44110;SDS011;29774;52.664;5.074;2022-09-13T00:07:36;8.05;;;7.35;;
44110;SDS011;29774;52.664;5.074;2022-09-13T00:10:02;8.07;;;7.28;;
44110;SDS011;29774;52.664;5.074;2022-09-13T00:12:28;9.10;;;6.80;;
44110;SDS011;29774;52.664;5.074;2022-09-13T00:14:54;9.80;;;6.72;;
44110;SDS011;29774;52.664;5.074;2022-09-13T00:17:19;8.20;;;6.07;;
44110;SDS011;29774;52.664;5.074;2022-09-13T00:19:45;8.65;;;6.93;;
44110;SDS011;29774;52.664;5.074;2022-09-13T00:22:11;7.72;;;6.32;;
44110;SDS011;29774;52.664;5.074;2022-09-13T00:24:36;9.13;;;6.30;;
44110;SDS011;29774;52.664;5.074;2022-09-13T00:27:02;9.15;;;7.20;;
44110;SDS011;29774;52.664;5.074;2022-09-13T00:29:28;8.27;;;6.25;;
44110;SDS011;29774;52.664;5.074;2022-09-13T00:31:53;6.57;;;5.93;;
44110;SDS011;29774;52.664;5.074;2022-09-13T00:34:19;6.40;;;5.72;;
44110;SDS011;29774;52.664;5.074;2022-09-13T00:36:45;9.15;;;6.57;;
44110;SDS011;29774;52.664;5.074;2022-09-13T00:39:10;8.82;;;5.45;;
44110;SDS011;29774;52.664;5.074;2022-09-13T00:41:36;8.88;;;5.97;;
44110;SDS011;29774;52.664;5.074;2022-09-13T00:44:02;8.30;;;6.07;;
44110;SDS011;29774;52.664;5.074;2022-09-13T00:46:37;6.35;;;5.55;;
44110;SDS011;29774;52.664;5.074;2022-09-13T00:51:58;9.82;;;5.45;;
44110;SDS011;29774;52.664;5.074;2022-09-13T00:54:28;8.68;;;5.72;;
44110;SDS011;29774;52.664;5.074;2022-09-13T00:56:59;9.50;;;5.60;;
44110;SDS011;29774;52.664;5.074;2022-09-13T00:59:31;10.48;;;6.13;;
44110;SDS011;29774;52.664;5.074;2022-09-13T01:02:04;9.00;;;5.72;;
44110;SDS011;29774;52.664;5.074;2022-09-13T01:04:30;10.57;;;5.90;;
44110;SDS011;29774;52.664;5.074;2022-09-13T01:07:04;7.15;;;5.63;;
44110;SDS011;29774;52.664;5.074;2022-09-13T01:09:33;10.05;;;6.07;;
44110;SDS011;29774;52.664;5.074;2022-09-13T01:14:32;8.50;;;6.18;;
44110;SDS011;29774;52.664;5.074;2022-09-13T01:16:58;11.20;;;6.35;;
44110;SDS011;29774;52.664;5.074;2022-09-13T01:19:24;9.60;;;6.90;;
44110;SDS011;29774;52.664;5.074;2022-09-13T01:27:26;10.85;;;6.65;;
44110;SDS011;29774;52.664;5.074;2022-09-13T01:31:09;7.82;;;6.80;;
44110;SDS011;29774;52.664;5.074;2022-09-13T01:38:45;7.85;;;6.00;;
44110;SDS011;29774;52.664;5.074;2022-09-13T01:46:33;10.85;;;6.35;;
44110;SDS011;29774;52.664;5.074;2022-09-13T01:49:17;7.40;;;6.43;;
44110;SDS011;29774;52.664;5.074;2022-09-13T01:52:00;9.30;;;6.57;;
44110;SDS011;29774;52.664;5.074;2022-09-13T01:54:53;8.43;;;6.45;;
44110;SDS011;29774;52.664;5.074;2022-09-13T01:57:34;8.40;;;6.85;;
44110;SDS011;29774;52.664;5.074;2022-09-13T02:00:07;7.32;;;6.63;;
44110;SDS011;29774;52.664;5.074;2022-09-13T02:02:51;13.10;;;7.00;;
44110;SDS011;29774;52.664;5.074;2022-09-13T02:05:34;7.05;;;6.25;;
44110;SDS011;29774;52.664;5.074;2022-09-13T02:11:14;9.40;;;6.00;;
44110;SDS011;29774;52.664;5.074;2022-09-13T02:13:54;12.27;;;6.25;;
44110;SDS011;29774;52.664;5.074;2022-09-13T02:16:39;10.80;;;6.47;;
44110;SDS011;29774;52.664;5.074;2022-09-13T02:19:09;13.10;;;6.00;;
44110;SDS011;29774;52.664;5.074;2022-09-13T02:21:40;9.70;;;6.07;;
44110;SDS011;29774;52.664;5.074;2022-09-13T02:24:26;8.82;;;5.70;;
44110;SDS011;29774;52.664;5.074;2022-09-13T02:26:58;7.30;;;5.60;;
44110;SDS011;29774;52.664;5.074;2022-09-13T02:29:35;8.35;;;6.13;;
44110;SDS011;29774;52.664;5.074;2022-09-13T02:32:11;9.07;;;6.53;;
44110;SDS011;29774;52.664;5.074;2022-09-13T02:34:39;8.60;;;5.60;;
44110;SDS011;29774;52.664;5.074;2022-09-13T02:37:09;7.05;;;5.90;;
44110;SDS011;29774;52.664;5.074;2022-09-13T02:39:42;11.02;;;6.10;;
44110;SDS011;29774;52.664;5.074;2022-09-13T02:44:46;6.28;;;5.55;;
44110;SDS011;29774;52.664;5.074;2022-09-13T02:47:27;9.48;;;5.85;;
44110;SDS011;29774;52.664;5.074;2022-09-13T02:50:14;9.07;;;5.47;;
44110;SDS011;29774;52.664;5.074;2022-09-13T02:53:04;6.45;;;5.65;;
44110;SDS011;29774;52.664;5.074;2022-09-13T03:01:40;6.93;;;4.63;;
44110;SDS011;29774;52.664;5.074;2022-09-13T03:04:09;7.72;;;5.30;;
44110;SDS011;29774;52.664;5.074;2022-09-13T03:06:36;9.10;;;5.30;;
44110;SDS011;29774;52.664;5.074;2022-09-13T03:09:03;7.72;;;4.85;;
44110;SDS011;29774;52.664;5.074;2022-09-13T03:14:35;7.30;;;5.95;;
44110;SDS011;29774;52.664;5.074;2022-09-13T03:20:13;7.30;;;5.57;;
44110;SDS011;29774;52.664;5.074;2022-09-13T03:31:29;9.23;;;5.88;;
44110;SDS011;29774;52.664;5.074;2022-09-13T03:37:04;10.13;;;5.75;;
44110;SDS011;29774;52.664;5.074;2022-09-13T03:39:51;5.65;;;4.97;;
44110;SDS011;29774;52.664;5.074;2022-09-13T03:42:32;7.85;;;5.85;;
44110;SDS011;29774;52.664;5.074;2022-09-13T03:45:02;9.82;;;5.93;;
44110;SDS011;29774;52.664;5.074;2022-09-13T03:47:30;7.75;;;6.30;;
44110;SDS011;29774;52.664;5.074;2022-09-13T03:50:00;8.60;;;6.30;;
44110;SDS011;29774;52.664;5.074;2022-09-13T03:52:27;10.50;;;5.68;;
44110;SDS011;29774;52.664;5.074;2022-09-13T03:54:53;8.45;;;5.95;;
44110;SDS011;29774;52.664;5.074;2022-09-13T03:57:20;7.88;;;6.05;;
44110;SDS011;29774;52.664;5.074;2022-09-13T03:59:50;9.80;;;6.32;;
44110;SDS011;29774;52.664;5.074;2022-09-13T04:02:18;6.85;;;5.78;;
44110;SDS011;29774;52.664;5.074;2022-09-13T04:04:45;7.90;;;5.95;;
44110;SDS011;29774;52.664;5.074;2022-09-13T04:07:13;7.88;;;5.68;;
44110;SDS011;29774;52.664;5.074;2022-09-13T04:09:46;7.53;;;5.57;;
44110;SDS011;29774;52.664;5.074;2022-09-13T04:12:14;6.20;;;3.53;;
44110;SDS011;29774;52.664;5.074;2022-09-13T04:14:41;6.40;;;4.53;;
44110;SDS011;29774;52.664;5.074;2022-09-13T04:17:10;5.32;;;2.50;;
44110;SDS011;29774;52.664;5.074;2022-09-13T04:19:37;4.00;;;2.47;;
44110;SDS011;29774;52.664;5.074;2022-09-13T04:22:02;6.75;;;2.75;;
44110;SDS011;29774;52.664;5.074;2022-09-13T04:24:29;4.70;;;2.28;;
44110;SDS011;29774;52.664;5.074;2022-09-13T04:26:55;5.30;;;2.33;;
44110;SDS011;29774;52.664;5.074;2022-09-13T04:29:22;7.25;;;1.92;;
44110;SDS011;29774;52.664;5.074;2022-09-13T04:31:49;4.80;;;2.13;;
44110;SDS011;29774;52.664;5.074;2022-09-13T04:34:17;7.07;;;1.85;;
44110;SDS011;29774;52.664;5.074;2022-09-13T04:36:43;5.95;;;1.40;;
44110;SDS011;29774;52.664;5.074;2022-09-13T04:39:09;5.40;;;1.50;;
44110;SDS011;29774;52.664;5.074;2022-09-13T04:41:35;5.00;;;1.50;;
44110;SDS011;29774;52.664;5.074;2022-09-13T04:44:01;7.38;;;1.35;;
44110;SDS011;29774;52.664;5.074;2022-09-13T04:46:27;3.92;;;1.50;;
44110;SDS011;29774;52.664;5.074;2022-09-13T04:48:53;7.53;;;1.52;;
44110;SDS011;29774;52.664;5.074;2022-09-13T04:51:19;4.55;;;1.30;;
44110;SDS011;29774;52.664;5.074;2022-09-13T04:53:51;3.10;;;1.15;;
44110;SDS011;29774;52.664;5.074;2022-09-13T04:56:21;2.30;;;1.05;;
44110;SDS011;29774;52.664;5.074;2022-09-13T04:58:49;2.95;;;1.10;;
44110;SDS011;29774;52.664;5.074;2022-09-13T05:01:15;3.15;;;1.00;;
44110;SDS011;29774;52.664;5.074;2022-09-13T05:03:41;3.22;;;0.95;;
44110;SDS011;29774;52.664;5.074;2022-09-13T05:06:11;2.17;;;0.77;;
44110;SDS011;29774;52.664;5.074;2022-09-13T05:08:40;4.35;;;1.55;;
44110;SDS011;29774;52.664;5.074;2022-09-13T05:11:06;2.97;;;0.90;;
44110;SDS011;29774;52.664;5.074;2022-09-13T05:13:32;4.90;;;1.08;;
44110;SDS011;29774;52.664;5.074;2022-09-13T05:15:58;2.42;;;0.80;;
44110;SDS011;29774;52.664;5.074;2022-09-13T05:18:27;2.22;;;0.75;;
44110;SDS011;29774;52.664;5.074;2022-09-13T05:20:54;6.05;;;1.52;;
44110;SDS011;29774;52.664;5.074;2022-09-13T05:23:21;1.17;;;0.82;;
44110;SDS011;29774;52.664;5.074;2022-09-13T05:25:55;3.60;;;0.75;;
44110;SDS011;29774;52.664;5.074;2022-09-13T05:28:22;2.50;;;0.85;;
44110;SDS011;29774;52.664;5.074;2022-09-13T05:30:53;3.53;;;0.98;;
44110;SDS011;29774;52.664;5.074;2022-09-13T05:33:22;1.58;;;0.70;;
44110;SDS011;29774;52.664;5.074;2022-09-13T05:35:49;1.35;;;0.65;;
44110;SDS011;29774;52.664;5.074;2022-09-13T05:38:15;3.53;;;1.30;;
44110;SDS011;29774;52.664;5.074;2022-09-13T05:40:41;3.47;;;0.70;;
44110;SDS011;29774;52.664;5.074;2022-09-13T05:43:06;1.90;;;1.10;;
44110;SDS011;29774;52.664;5.074;2022-09-13T05:45:32;2.92;;;1.10;;
44110;SDS011;29774;52.664;5.074;2022-09-13T05:47:58;1.35;;;0.90;;
44110;SDS011;29774;52.664;5.074;2022-09-13T05:50:23;1.63;;;0.70;;
44110;SDS011;29774;52.664;5.074;2022-09-13T05:52:52;1.10;;;0.57;;
44110;SDS011;29774;52.664;5.074;2022-09-13T05:55:18;1.70;;;0.90;;
44110;SDS011;29774;52.664;5.074;2022-09-13T05:57:45;3.63;;;1.20;;
44110;SDS011;29774;52.664;5.074;2022-09-13T06:00:11;0.85;;;0.43;;
44110;SDS011;29774;52.664;5.074;2022-09-13T06:02:37;4.38;;;1.00;;
44110;SDS011;29774;52.664;5.074;2022-09-13T06:05:02;2.25;;;0.95;;
44110;SDS011;29774;52.664;5.074;2022-09-13T06:07:28;5.03;;;1.13;;
44110;SDS011;29774;52.664;5.074;2022-09-13T06:09:54;1.42;;;0.80;;
44110;SDS011;29774;52.664;5.074;2022-09-13T06:12:19;5.30;;;0.88;;
44110;SDS011;29774;52.664;5.074;2022-09-13T06:14:45;1.52;;;1.00;;
44110;SDS011;29774;52.664;5.074;2022-09-13T06:17:10;1.77;;;0.73;;
44110;SDS011;29774;52.664;5.074;2022-09-13T06:19:36;2.90;;;1.35;;
44110;SDS011;29774;52.664;5.074;2022-09-13T06:22:01;4.07;;;0.90;;
44110;SDS011;29774;52.664;5.074;2022-09-13T06:24:27;3.55;;;1.23;;
44110;SDS011;29774;52.664;5.074;2022-09-13T06:26:52;3.70;;;1.17;;
44110;SDS011;29774;52.664;5.074;2022-09-13T06:29:18;2.15;;;1.10;;
44110;SDS011;29774;52.664;5.074;2022-09-13T06:31:44;3.78;;;1.10;;
44110;SDS011;29774;52.664;5.074;2022-09-13T06:34:10;3.10;;;1.45;;
44110;SDS011;29774;52.664;5.074;2022-09-13T06:36:40;3.10;;;1.38;;
44110;SDS011;29774;52.664;5.074;2022-09-13T06:39:06;1.55;;;1.10;;
44110;SDS011;29774;52.664;5.074;2022-09-13T06:41:32;2.30;;;1.00;;
44110;SDS011;29774;52.664;5.074;2022-09-13T06:43:58;4.60;;;1.30;;
44110;SDS011;29774;52.664;5.074;2022-09-13T06:46:29;3.88;;;1.55;;
44110;SDS011;29774;52.664;5.074;2022-09-13T06:49:00;5.97;;;1.27;;
44110;SDS011;29774;52.664;5.074;2022-09-13T06:51:28;1.70;;;1.02;;
44110;SDS011;29774;52.664;5.074;2022-09-13T06:53:54;3.75;;;1.20;;
44110;SDS011;29774;52.664;5.074;2022-09-13T06:56:27;4.55;;;1.25;;
44110;SDS011;29774;52.664;5.074;2022-09-13T06:58:59;2.20;;;1.20;;
44110;SDS011;29774;52.664;5.074;2022-09-13T07:01:34;3.25;;;1.10;;
44110;SDS011;29774;52.664;5.074;2022-09-13T07:04:11;3.72;;;1.17;;
44110;SDS011;29774;52.664;5.074;2022-09-13T07:06:40;5.25;;;2.70;;
44110;SDS011;29774;52.664;5.074;2022-09-13T07:09:09;2.33;;;1.30;;
44110;SDS011;29774;52.664;5.074;2022-09-13T07:11:37;5.80;;;1.33;;
44110;SDS011;29774;52.664;5.074;2022-09-13T07:14:04;1.02;;;0.57;;
44110;SDS011;29774;52.664;5.074;2022-09-13T07:16:31;1.27;;;0.63;;
44110;SDS011;29774;52.664;5.074;2022-09-13T07:19:01;2.75;;;1.27;;
44110;SDS011;29774;52.664;5.074;2022-09-13T07:21:31;1.77;;;0.75;;
44110;SDS011;29774;52.664;5.074;2022-09-13T07:23:57;3.00;;;1.17;;
44110;SDS011;29774;52.664;5.074;2022-09-13T07:26:24;0.68;;;0.40;;
44110;SDS011;29774;52.664;5.074;2022-09-13T07:28:52;2.35;;;0.70;;
44110;SDS011;29774;52.664;5.074;2022-09-13T07:31:28;1.80;;;0.70;;
44110;SDS011;29774;52.664;5.074;2022-09-13T07:33:57;3.10;;;0.88;;
44110;SDS011;29774;52.664;5.074;2022-09-13T07:36:25;2.67;;;0.60;;
44110;SDS011;29774;52.664;5.074;2022-09-13T07:38:51;1.00;;;0.60;;
44110;SDS011;29774;52.664;5.074;2022-09-13T07:41:18;1.65;;;0.60;;
44110;SDS011;29774;52.664;5.074;2022-09-13T07:43:45;2.45;;;0.90;;
44110;SDS011;29774;52.664;5.074;2022-09-13T07:46:13;3.55;;;1.02;;
44110;SDS011;29774;52.664;5.074;2022-09-13T07:48:43;3.75;;;1.17;;
44110;SDS011;29774;52.664;5.074;2022-09-13T07:51:13;4.70;;;1.10;;
44110;SDS011;29774;52.664;5.074;2022-09-13T07:53:41;2.55;;;0.50;;
44110;SDS011;29774;52.664;5.074;2022-09-13T07:56:11;3.55;;;0.75;;
44110;SDS011;29774;52.664;5.074;2022-09-13T07:58:39;1.23;;;0.60;;
44110;SDS011;29774;52.664;5.074;2022-09-13T08:03:52;2.97;;;0.60;;
44110;SDS011;29774;52.664;5.074;2022-09-13T08:06:26;0.40;;;0.40;;
44110;SDS011;29774;52.664;5.074;2022-09-13T08:08:54;1.25;;;0.43;;
44110;SDS011;29774;52.664;5.074;2022-09-13T08:11:21;3.95;;;1.05;;
44110;SDS011;29774;52.664;5.074;2022-09-13T08:13:49;1.88;;;0.57;;
44110;SDS011;29774;52.664;5.074;2022-09-13T08:16:16;2.33;;;0.60;;
44110;SDS011;29774;52.664;5.074;2022-09-13T08:18:44;2.78;;;0.63;;
44110;SDS011;29774;52.664;5.074;2022-09-13T08:21:10;1.10;;;0.40;;
44110;SDS011;29774;52.664;5.074;2022-09-13T08:23:37;2.03;;;0.60;;
44110;SDS011;29774;52.664;5.074;2022-09-13T08:26:03;2.85;;;0.73;;
44110;SDS011;29774;52.664;5.074;2022-09-13T08:28:30;2.15;;;0.70;;
44110;SDS011;29774;52.664;5.074;2022-09-13T08:31:01;2.42;;;0.60;;
44110;SDS011;29774;52.664;5.074;2022-09-13T08:33:30;2.80;;;0.60;;
44110;SDS011;29774;52.664;5.074;2022-09-13T08:35:57;5.18;;;0.93;;
44110;SDS011;29774;52.664;5.074;2022-09-13T08:38:23;3.90;;;0.80;;
44110;SDS011;29774;52.664;5.074;2022-09-13T08:40:49;7.00;;;1.00;;
44110;SDS011;29774;52.664;5.074;2022-09-13T08:43:23;3.00;;;0.70;;
44110;SDS011;29774;52.664;5.074;2022-09-13T08:46:20;2.83;;;0.85;;
44110;SDS011;29774;52.664;5.074;2022-09-13T08:48:50;6.47;;;1.02;;
44110;SDS011;29774;52.664;5.074;2022-09-13T08:53:53;1.65;;;0.50;;
44110;SDS011;29774;52.664;5.074;2022-09-13T08:56:22;4.85;;;0.80;;
44110;SDS011;29774;52.664;5.074;2022-09-13T08:59:02;2.65;;;0.63;;
44110;SDS011;29774;52.664;5.074;2022-09-13T09:04:19;2.63;;;0.80;;
44110;SDS011;29774;52.664;5.074;2022-09-13T09:07:02;4.38;;;1.30;;
44110;SDS011;29774;52.664;5.074;2022-09-13T09:09:34;3.63;;;0.75;;
44110;SDS011;29774;52.664;5.074;2022-09-13T09:14:41;28.80;;;3.47;;
44110;SDS011;29774;52.664;5.074;2022-09-13T09:17:19;3.42;;;0.80;;
44110;SDS011;29774;52.664;5.074;2022-09-13T09:19:53;3.42;;;0.80;;
44110;SDS011;29774;52.664;5.074;2022-09-13T09:22:28;4.07;;;1.05;;
44110;SDS011;29774;52.664;5.074;2022-09-13T09:24:58;3.15;;;1.20;;
44110;SDS011;29774;52.664;5.074;2022-09-13T09:27:24;3.85;;;0.90;;
44110;SDS011;29774;52.664;5.074;2022-09-13T09:29:51;3.83;;;1.05;;
44110;SDS011;29774;52.664;5.074;2022-09-13T09:35:11;3.17;;;1.10;;
44110;SDS011;29774;52.664;5.074;2022-09-13T09:40:44;2.35;;;0.70;;
44110;SDS011;29774;52.664;5.074;2022-09-13T09:43:11;2.45;;;0.50;;
44110;SDS011;29774;52.664;5.074;2022-09-13T09:45:44;4.25;;;0.80;;
44110;SDS011;29774;52.664;5.074;2022-09-13T09:48:12;4.47;;;0.50;;
44110;SDS011;29774;52.664;5.074;2022-09-13T09:50:44;2.08;;;0.60;;
44110;SDS011;29774;52.664;5.074;2022-09-13T09:53:15;2.78;;;0.80;;
44110;SDS011;29774;52.664;5.074;2022-09-13T09:55:54;4.28;;;0.60;;
44110;SDS011;29774;52.664;5.074;2022-09-13T09:58:34;2.70;;;0.95;;
44110;SDS011;29774;52.664;5.074;2022-09-13T10:01:05;3.13;;;0.75;;
44110;SDS011;29774;52.664;5.074;2022-09-13T10:06:37;1.13;;;0.47;;
44110;SDS011;29774;52.664;5.074;2022-09-13T10:11:55;2.53;;;0.77;;
44110;SDS011;29774;52.664;5.074;2022-09-13T10:17:25;1.05;;;0.57;;
44110;SDS011;29774;52.664;5.074;2022-09-13T10:22:19;1.73;;;0.40;;
44110;SDS011;29774;52.664;5.074;2022-09-13T10:24:46;6.07;;;0.55;;
44110;SDS011;29774;52.664;5.074;2022-09-13T10:27:18;1.88;;;0.80;;
44110;SDS011;29774;52.664;5.074;2022-09-13T10:30:06;1.70;;;0.60;;
44110;SDS011;29774;52.664;5.074;2022-09-13T10:32:53;3.45;;;0.60;;
44110;SDS011;29774;52.664;5.074;2022-09-13T10:35:19;4.65;;;0.60;;
44110;SDS011;29774;52.664;5.074;2022-09-13T10:37:45;3.20;;;0.68;;
44110;SDS011;29774;52.664;5.074;2022-09-13T10:40:25;1.15;;;0.60;;
44110;SDS011;29774;52.664;5.074;2022-09-13T10:42:58;2.28;;;0.47;;
44110;SDS011;29774;52.664;5.074;2022-09-13T10:45:26;2.58;;;0.85;;
44110;SDS011;29774;52.664;5.074;2022-09-13T10:48:03;3.95;;;0.68;;
44110;SDS011;29774;52.664;5.074;2022-09-13T10:50:39;5.30;;;0.50;;
44110;SDS011;29774;52.664;5.074;2022-09-13T10:53:36;2.35;;;0.50;;
44110;SDS011;29774;52.664;5.074;2022-09-13T10:56:04;4.82;;;0.70;;
44110;SDS011;29774;52.664;5.074;2022-09-13T10:58:43;2.45;;;0.30;;
44110;SDS011;29774;52.664;5.074;2022-09-13T11:01:15;3.13;;;0.55;;
44110;SDS011;29774;52.664;5.074;2022-09-13T11:12:15;1.02;;;0.43;;
44110;SDS011;29774;52.664;5.074;2022-09-13T11:17:38;1.33;;;0.73;;
44110;SDS011;29774;52.664;5.074;2022-09-13T11:20:30;3.10;;;0.90;;
44110;SDS011;29774;52.664;5.074;2022-09-13T11:25:59;2.72;;;0.50;;
44110;SDS011;29774;52.664;5.074;2022-09-13T11:29:41;7.55;;;0.60;;
44110;SDS011;29774;52.664;5.074;2022-09-13T11:34:43;2.80;;;0.73;;
44110;SDS011;29774;52.664;5.074;2022-09-13T11:45:38;1.98;;;0.88;;
44110;SDS011;29774;52.664;5.074;2022-09-13T11:48:24;1.52;;;0.50;;
44110;SDS011;29774;52.664;5.074;2022-09-13T11:51:03;2.25;;;0.50;;
44110;SDS011;29774;52.664;5.074;2022-09-13T11:54:00;2.08;;;0.52;;
44110;SDS011;29774;52.664;5.074;2022-09-13T11:56:49;2.33;;;0.60;;
44110;SDS011;29774;52.664;5.074;2022-09-13T11:59:22;2.28;;;0.50;;
44110;SDS011;29774;52.664;5.074;2022-09-13T12:02:23;1.45;;;0.40;;
44110;SDS011;29774;52.664;5.074;2022-09-13T12:04:55;4.03;;;0.73;;
44110;SDS011;29774;52.664;5.074;2022-09-13T12:10:18;1.23;;;0.38;;
44110;SDS011;29774;52.664;5.074;2022-09-13T12:12:54;3.80;;;0.68;;
44110;SDS011;29774;52.664;5.074;2022-09-13T12:15:26;2.22;;;0.45;;
44110;SDS011;29774;52.664;5.074;2022-09-13T12:18:01;1.67;;;0.40;;
44110;SDS011;29774;52.664;5.074;2022-09-13T12:20:41;3.28;;;0.90;;
44110;SDS011;29774;52.664;5.074;2022-09-13T12:23:12;2.45;;;0.52;;
44110;SDS011;29774;52.664;5.074;2022-09-13T12:28:36;3.65;;;0.70;;
44110;SDS011;29774;52.664;5.074;2022-09-13T12:31:09;1.05;;;0.30;;
44110;SDS011;29774;52.664;5.074;2022-09-13T12:33:40;1.40;;;0.77;;
44110;SDS011;29774;52.664;5.074;2022-09-13T12:38:48;2.10;;;0.40;;
44110;SDS011;29774;52.664;5.074;2022-09-13T12:41:33;2.17;;;1.35;;
44110;SDS011;29774;52.664;5.074;2022-09-13T12:44:19;2.28;;;0.57;;
44110;SDS011;29774;52.664;5.074;2022-09-13T12:52:22;2.15;;;0.50;;
44110;SDS011;29774;52.664;5.074;2022-09-13T12:58:09;1.85;;;0.70;;
44110;SDS011;29774;52.664;5.074;2022-09-13T13:00:58;1.38;;;0.60;;
44110;SDS011;29774;52.664;5.074;2022-09-13T13:04:02;3.53;;;0.70;;
44110;SDS011;29774;52.664;5.074;2022-09-13T13:11:52;1.60;;;0.70;;
44110;SDS011;29774;52.664;5.074;2022-09-13T13:14:26;2.88;;;1.30;;
44110;SDS011;29774;52.664;5.074;2022-09-13T13:16:54;5.70;;;1.45;;
44110;SDS011;29774;52.664;5.074;2022-09-13T13:19:59;3.22;;;1.40;;
44110;SDS011;29774;52.664;5.074;2022-09-13T13:27:56;3.03;;;1.58;;
44110;SDS011;29774;52.664;5.074;2022-09-13T13:30:39;2.35;;;1.05;;
44110;SDS011;29774;52.664;5.074;2022-09-13T13:33:26;6.25;;;1.55;;
44110;SDS011;29774;52.664;5.074;2022-09-13T13:35:53;2.40;;;1.38;;
44110;SDS011;29774;52.664;5.074;2022-09-13T13:40:47;2.47;;;1.17;;
44110;SDS011;29774;52.664;5.074;2022-09-13T13:48:37;3.05;;;0.90;;
44110;SDS011;29774;52.664;5.074;2022-09-13T13:53:35;3.70;;;0.70;;
44110;SDS011;29774;52.664;5.074;2022-09-13T14:01:29;1.88;;;0.75;;
44110;SDS011;29774;52.664;5.074;2022-09-13T14:20:16;4.20;;;1.02;;
44110;SDS011;29774;52.664;5.074;2022-09-13T14:22:43;1.67;;;0.88;;
44110;SDS011;29774;52.664;5.074;2022-09-13T14:25:21;3.97;;;0.82;;
44110;SDS011;29774;52.664;5.074;2022-09-13T14:27:49;1.30;;;0.80;;
44110;SDS011;29774;52.664;5.074;2022-09-13T14:30:22;3.53;;;0.82;;
44110;SDS011;29774;52.664;5.074;2022-09-13T14:32:55;1.83;;;0.90;;
44110;SDS011;29774;52.664;5.074;2022-09-13T14:35:29;2.45;;;1.00;;
44110;SDS011;29774;52.664;5.074;2022-09-13T14:38:11;2.63;;;1.00;;
44110;SDS011;29774;52.664;5.074;2022-09-13T14:40:51;7.25;;;1.27;;
44110;SDS011;29774;52.664;5.074;2022-09-13T14:43:19;5.32;;;1.00;;
44110;SDS011;29774;52.664;5.074;2022-09-13T14:45:47;3.00;;;0.90;;
44110;SDS011;29774;52.664;5.074;2022-09-13T14:48:18;5.55;;;1.02;;
44110;SDS011;29774;52.664;5.074;2022-09-13T14:50:48;4.70;;;1.25;;
44110;SDS011;29774;52.664;5.074;2022-09-13T14:53:24;5.78;;;0.98;;
44110;SDS011;29774;52.664;5.074;2022-09-13T14:55:52;3.38;;;0.90;;
44110;SDS011;29774;52.664;5.074;2022-09-13T14:58:25;3.17;;;0.73;;
44110;SDS011;29774;52.664;5.074;2022-09-13T15:01:02;6.35;;;1.30;;
44110;SDS011;29774;52.664;5.074;2022-09-13T15:03:31;1.83;;;0.80;;
44110;SDS011;29774;52.664;5.074;2022-09-13T15:05:58;4.97;;;2.10;;
44110;SDS011;29774;52.664;5.074;2022-09-13T15:10:57;4.22;;;1.05;;
44110;SDS011;29774;52.664;5.074;2022-09-13T15:13:23;1.58;;;0.77;;
44110;SDS011;29774;52.664;5.074;2022-09-13T15:15:49;4.82;;;0.93;;
44110;SDS011;29774;52.664;5.074;2022-09-13T15:23:36;1.88;;;0.55;;
44110;SDS011;29774;52.664;5.074;2022-09-13T15:26:18;3.40;;;0.85;;
44110;SDS011;29774;52.664;5.074;2022-09-13T15:28:50;2.35;;;1.13;;
44110;SDS011;29774;52.664;5.074;2022-09-13T15:31:27;3.92;;;0.85;;
44110;SDS011;29774;52.664;5.074;2022-09-13T15:34:10;1.92;;;0.70;;
44110;SDS011;29774;52.664;5.074;2022-09-13T15:36:46;1.95;;;0.77;;
44110;SDS011;29774;52.664;5.074;2022-09-13T15:39:25;4.70;;;1.25;;
44110;SDS011;29774;52.664;5.074;2022-09-13T15:41:55;4.30;;;1.23;;
44110;SDS011;29774;52.664;5.074;2022-09-13T15:44:22;5.40;;;0.95;;
44110;SDS011;29774;52.664;5.074;2022-09-13T15:49:18;3.42;;;0.90;;
44110;SDS011;29774;52.664;5.074;2022-09-13T15:51:46;3.42;;;0.82;;
44110;SDS011;29774;52.664;5.074;2022-09-13T15:54:17;3.35;;;0.70;;
44110;SDS011;29774;52.664;5.074;2022-09-13T15:56:44;5.63;;;0.90;;
44110;SDS011;29774;52.664;5.074;2022-09-13T15:59:15;1.15;;;0.82;;
44110;SDS011;29774;52.664;5.074;2022-09-13T16:01:42;3.45;;;0.75;;
44110;SDS011;29774;52.664;5.074;2022-09-13T16:04:08;3.22;;;0.60;;
44110;SDS011;29774;52.664;5.074;2022-09-13T16:06:34;0.93;;;0.68;;
44110;SDS011;29774;52.664;5.074;2022-09-13T16:09:01;2.40;;;0.55;;
44110;SDS011;29774;52.664;5.074;2022-09-13T16:11:34;2.28;;;0.82;;
44110;SDS011;29774;52.664;5.074;2022-09-13T16:14:01;6.82;;;2.25;;
44110;SDS011;29774;52.664;5.074;2022-09-13T16:16:27;3.08;;;1.05;;
44110;SDS011;29774;52.664;5.074;2022-09-13T16:18:52;2.05;;;0.80;;
44110;SDS011;29774;52.664;5.074;2022-09-13T16:21:18;3.97;;;1.00;;
44110;SDS011;29774;52.664;5.074;2022-09-13T16:23:47;3.50;;;1.00;;
44110;SDS011;29774;52.664;5.074;2022-09-13T16:26:12;2.53;;;0.88;;
44110;SDS011;29774;52.664;5.074;2022-09-13T16:28:38;3.53;;;0.85;;
44110;SDS011;29774;52.664;5.074;2022-09-13T16:31:03;2.80;;;0.80;;
44110;SDS011;29774;52.664;5.074;2022-09-13T16:33:32;1.40;;;0.70;;
44110;SDS011;29774;52.664;5.074;2022-09-13T16:35:58;2.50;;;0.80;;
44110;SDS011;29774;52.664;5.074;2022-09-13T16:38:24;1.90;;;0.90;;
44110;SDS011;29774;52.664;5.074;2022-09-13T16:40:49;1.00;;;0.57;;
44110;SDS011;29774;52.664;5.074;2022-09-13T16:43:15;2.33;;;0.90;;
44110;SDS011;29774;52.664;5.074;2022-09-13T16:45:42;3.60;;;1.25;;
44110;SDS011;29774;52.664;5.074;2022-09-13T16:48:08;1.55;;;0.63;;
44110;SDS011;29774;52.664;5.074;2022-09-13T16:50:37;5.75;;;0.90;;
44110;SDS011;29774;52.664;5.074;2022-09-13T16:53:04;1.58;;;0.75;;
44110;SDS011;29774;52.664;5.074;2022-09-13T16:55:29;2.17;;;0.80;;
44110;SDS011;29774;52.664;5.074;2022-09-13T16:57:55;1.75;;;0.60;;
44110;SDS011;29774;52.664;5.074;2022-09-13T17:00:21;1.52;;;0.70;;
44110;SDS011;29774;52.664;5.074;2022-09-13T17:02:48;3.28;;;0.90;;
44110;SDS011;29774;52.664;5.074;2022-09-13T17:05:14;2.33;;;0.77;;
44110;SDS011;29774;52.664;5.074;2022-09-13T17:07:39;1.05;;;0.40;;
44110;SDS011;29774;52.664;5.074;2022-09-13T17:10:05;1.25;;;0.75;;
44110;SDS011;29774;52.664;5.074;2022-09-13T17:12:32;3.35;;;0.65;;
44110;SDS011;29774;52.664;5.074;2022-09-13T17:15:01;2.85;;;0.60;;
44110;SDS011;29774;52.664;5.074;2022-09-13T17:17:27;5.43;;;1.75;;
44110;SDS011;29774;52.664;5.074;2022-09-13T17:19:57;6.35;;;0.90;;
44110;SDS011;29774;52.664;5.074;2022-09-13T17:22:23;6.40;;;1.73;;
44110;SDS011;29774;52.664;5.074;2022-09-13T17:24:48;4.13;;;0.70;;
44110;SDS011;29774;52.664;5.074;2022-09-13T17:27:17;3.10;;;0.75;;
44110;SDS011;29774;52.664;5.074;2022-09-13T17:29:43;7.25;;;1.15;;
44110;SDS011;29774;52.664;5.074;2022-09-13T17:32:08;5.57;;;1.27;;
44110;SDS011;29774;52.664;5.074;2022-09-13T17:34:34;2.10;;;0.65;;
44110;SDS011;29774;52.664;5.074;2022-09-13T17:37:00;4.25;;;1.27;;
44110;SDS011;29774;52.664;5.074;2022-09-13T17:39:27;2.55;;;0.90;;
44110;SDS011;29774;52.664;5.074;2022-09-13T17:41:53;3.85;;;1.00;;
44110;SDS011;29774;52.664;5.074;2022-09-13T17:44:19;2.50;;;0.60;;
44110;SDS011;29774;52.664;5.074;2022-09-13T17:46:44;2.85;;;0.70;;
44110;SDS011;29774;52.664;5.074;2022-09-13T17:49:10;3.63;;;0.95;;
44110;SDS011;29774;52.664;5.074;2022-09-13T17:51:36;4.07;;;1.08;;
44110;SDS011;29774;52.664;5.074;2022-09-13T17:54:02;3.92;;;0.98;;
44110;SDS011;29774;52.664;5.074;2022-09-13T17:56:33;4.20;;;0.68;;
44110;SDS011;29774;52.664;5.074;2022-09-13T18:01:36;4.05;;;0.77;;
44110;SDS011;29774;52.664;5.074;2022-09-13T18:04:04;1.45;;;0.70;;
44110;SDS011;29774;52.664;5.074;2022-09-13T18:06:30;1.33;;;0.50;;